createdAt,value
2017-02-15T00:00:20.720Z,1031.29
2017-02-15T00:01:31.481Z,1031.27
2017-02-15T00:02:41.838Z,1031.26
2017-02-15T00:03:51.687Z,1031.3
2017-02-15T00:05:02.461Z,1031.29
2017-02-15T00:06:12.828Z,1031.28
2017-02-15T00:07:23.608Z,1031.32
2017-02-15T00:08:33.990Z,1031.31
2017-02-15T00:09:44.999Z,1031.29
2017-02-15T00:10:55.785Z,1031.26
2017-02-15T00:12:06.156Z,1031.25
2017-02-15T00:13:16.538Z,1031.25
2017-02-15T00:14:27.301Z,1031.2
2017-02-15T00:15:37.132Z,1031.21
2017-02-15T00:16:47.909Z,1031.23
2017-02-15T00:17:58.659Z,1031.26
2017-02-15T00:19:09.040Z,1031.28
2017-02-15T00:20:19.802Z,1031.27
2017-02-15T00:21:30.809Z,1031.24
2017-02-15T00:22:40.778Z,1031.29
2017-02-15T00:23:50.827Z,1031.25
2017-02-15T00:25:01.587Z,1031.3
2017-02-15T00:26:12.354Z,1031.28
2017-02-15T00:27:23.357Z,1031.29
2017-02-15T00:28:34.122Z,1031.27
2017-02-15T00:29:44.933Z,1031.25
2017-02-15T00:30:55.308Z,1031.23
2017-02-15T00:32:06.056Z,1031.22
2017-02-15T00:33:16.720Z,1031.25
2017-02-15T00:34:27.480Z,1031.26
2017-02-15T00:35:38.275Z,1031.26
2017-02-15T00:36:49.079Z,1031.28
2017-02-15T00:37:59.827Z,1031.29
2017-02-15T00:39:10.435Z,1031.33
2017-02-15T00:40:20.808Z,1031.33
2017-02-15T00:41:31.186Z,1031.28
2017-02-15T00:42:41.161Z,1031.34
2017-02-15T00:43:51.120Z,1031.31
2017-02-15T00:45:02.141Z,1031.32
2017-02-15T00:46:12.928Z,1031.33
2017-02-15T00:47:23.299Z,1031.31
2017-02-15T00:48:33.711Z,1031.32
2017-02-15T00:49:43.666Z,1031.34
2017-02-15T00:50:53.928Z,1031.35
2017-02-15T00:52:04.320Z,1031.37
2017-02-15T00:53:14.687Z,1031.38
2017-02-15T00:54:25.455Z,1031.37
2017-02-15T00:55:35.833Z,1031.33
2017-02-15T00:56:46.450Z,1031.35
2017-02-15T00:57:57.196Z,1031.37
2017-02-15T00:59:07.946Z,1031.35
2017-02-15T01:00:17.909Z,1031.32
2017-02-15T01:01:28.308Z,1031.3
2017-02-15T01:02:38.607Z,1031.26
2017-02-15T01:03:49.378Z,1031.23
2017-02-15T01:05:00.140Z,1031.22
2017-02-15T01:06:10.909Z,1031.22
2017-02-15T01:07:21.679Z,1031.23
2017-02-15T01:08:32.342Z,1031.24
2017-02-15T01:09:43.100Z,1031.22
2017-02-15T01:10:53.881Z,1031.2
2017-02-15T01:12:04.645Z,1031.2
2017-02-15T01:13:15.008Z,1031.2
2017-02-15T01:14:26.027Z,1031.22
2017-02-15T01:15:36.771Z,1031.19
2017-02-15T01:16:47.561Z,1031.15
2017-02-15T01:17:58.310Z,1031.13
2017-02-15T01:19:09.064Z,1031.12
2017-02-15T01:20:20.084Z,1031.09
2017-02-15T01:21:30.456Z,1031.06
2017-02-15T01:22:40.413Z,1031.06
2017-02-15T01:23:51.164Z,1031.05
2017-02-15T01:25:01.537Z,1031.09
2017-02-15T01:26:12.553Z,1031.1
2017-02-15T01:27:22.517Z,1031.07
2017-02-15T01:28:33.273Z,1031.1
2017-02-15T01:29:44.075Z,1031.04
2017-02-15T01:30:54.031Z,1031.07
2017-02-15T01:32:05.042Z,1031.09
2017-02-15T01:33:15.784Z,1031.04
2017-02-15T01:34:26.540Z,1031.03
2017-02-15T01:35:36.930Z,1031
2017-02-15T01:36:47.700Z,1031
2017-02-15T01:37:59.006Z,1031.03
2017-02-15T01:39:08.981Z,1031.01
2017-02-15T01:40:19.733Z,1030.97
2017-02-15T01:41:30.112Z,1031.01
2017-02-15T01:42:40.879Z,1030.97
2017-02-15T01:43:51.889Z,1030.96
2017-02-15T01:45:03.147Z,1030.94
2017-02-15T01:46:13.519Z,1030.92
2017-02-15T01:47:23.474Z,1030.92
2017-02-15T01:48:33.839Z,1030.92
2017-02-15T01:49:44.862Z,1030.94
2017-02-15T01:50:55.631Z,1030.9
2017-02-15T01:52:06.034Z,1030.88
2017-02-15T01:53:16.801Z,1030.87
2017-02-15T01:54:27.556Z,1030.9
2017-02-15T01:55:37.775Z,1030.88
2017-02-15T01:56:48.539Z,1030.92
2017-02-15T01:57:58.926Z,1030.91
2017-02-15T01:59:09.306Z,1030.89
2017-02-15T02:00:19.683Z,1030.91
2017-02-15T02:01:30.692Z,1030.92
2017-02-15T02:02:41.457Z,1030.94
2017-02-15T02:03:52.206Z,1030.88
2017-02-15T02:05:02.955Z,1030.9
2017-02-15T02:06:13.329Z,1030.92
2017-02-15T02:07:24.331Z,1030.9
2017-02-15T02:08:35.106Z,1030.92
2017-02-15T02:09:45.845Z,1030.89
2017-02-15T02:10:56.609Z,1030.88
2017-02-15T02:12:06.967Z,1030.88
2017-02-15T02:13:17.594Z,1030.89
2017-02-15T02:14:28.347Z,1030.86
2017-02-15T02:15:38.701Z,1030.9
2017-02-15T02:16:48.714Z,1030.9
2017-02-15T02:17:59.483Z,1030.85
2017-02-15T02:19:10.486Z,1030.88
2017-02-15T02:20:20.858Z,1030.87
2017-02-15T02:21:31.210Z,1030.88
2017-02-15T02:22:41.962Z,1030.86
2017-02-15T02:23:52.721Z,1030.82
2017-02-15T02:25:03.347Z,1030.79
2017-02-15T02:26:14.105Z,1030.79
2017-02-15T02:27:24.870Z,1030.79
2017-02-15T02:28:35.266Z,1030.77
2017-02-15T02:29:46.036Z,1030.77
2017-02-15T02:30:57.092Z,1030.81
2017-02-15T02:32:07.473Z,1030.79
2017-02-15T02:33:18.240Z,1030.78
2017-02-15T02:34:29.013Z,1030.82
2017-02-15T02:35:39.776Z,1030.78
2017-02-15T02:36:50.798Z,1030.8
2017-02-15T02:38:01.156Z,1030.79
2017-02-15T02:39:11.916Z,1030.79
2017-02-15T02:40:22.277Z,1030.76
2017-02-15T02:41:32.625Z,1030.76
2017-02-15T02:42:43.664Z,1030.81
2017-02-15T02:43:54.419Z,1030.83
2017-02-15T02:45:04.800Z,1030.81
2017-02-15T02:46:15.583Z,1030.85
2017-02-15T02:47:25.933Z,1030.84
2017-02-15T02:48:36.968Z,1030.85
2017-02-15T02:49:47.718Z,1030.81
2017-02-15T02:50:57.686Z,1030.79
2017-02-15T02:52:07.682Z,1030.8
2017-02-15T02:53:18.448Z,1030.78
2017-02-15T02:54:29.469Z,1030.76
2017-02-15T02:55:40.237Z,1030.77
2017-02-15T02:56:50.596Z,1030.81
2017-02-15T02:58:01.368Z,1030.81
2017-02-15T02:59:12.128Z,1030.82
2017-02-15T03:00:23.140Z,1030.79
2017-02-15T03:01:33.901Z,1030.77
2017-02-15T03:02:44.646Z,1030.81
2017-02-15T03:03:55.008Z,1030.82
2017-02-15T03:05:05.811Z,1030.84
2017-02-15T03:06:16.434Z,1030.81
2017-02-15T03:07:26.988Z,1030.82
2017-02-15T03:08:37.743Z,1030.76
2017-02-15T03:09:48.492Z,1030.79
2017-02-15T03:10:59.251Z,1030.83
2017-02-15T03:12:09.935Z,1030.79
2017-02-15T03:13:20.717Z,1030.78
2017-02-15T03:14:31.493Z,1030.79
2017-02-15T03:15:42.249Z,1030.81
2017-02-15T03:16:53.632Z,1030.77
2017-02-15T03:18:04.230Z,1030.77
2017-02-15T03:19:14.608Z,1030.82
2017-02-15T03:20:24.982Z,1030.77
2017-02-15T03:21:35.357Z,1030.75
2017-02-15T03:22:46.106Z,1030.79
2017-02-15T03:23:57.128Z,1030.78
2017-02-15T03:25:07.495Z,1030.79
2017-02-15T03:26:18.260Z,1030.83
2017-02-15T03:27:28.653Z,1030.78
2017-02-15T03:28:39.422Z,1030.77
2017-02-15T03:29:50.474Z,1030.75
2017-02-15T03:31:00.453Z,1030.74
2017-02-15T03:32:11.206Z,1030.75
2017-02-15T03:33:21.978Z,1030.77
2017-02-15T03:34:32.755Z,1030.79
2017-02-15T03:35:42.576Z,1030.81
2017-02-15T03:36:53.351Z,1030.76
2017-02-15T03:38:04.112Z,1030.78
2017-02-15T03:39:14.502Z,1030.78
2017-02-15T03:40:24.873Z,1030.81
2017-02-15T03:41:35.537Z,1030.8
2017-02-15T03:42:45.896Z,1030.79
2017-02-15T03:43:56.671Z,1030.8
2017-02-15T03:45:06.634Z,1030.83
2017-02-15T03:46:17.392Z,1030.8
2017-02-15T03:47:28.410Z,1030.82
2017-02-15T03:48:39.166Z,1030.84
2017-02-15T03:49:49.930Z,1030.82
2017-02-15T03:51:00.679Z,1030.8
2017-02-15T03:52:11.424Z,1030.85
2017-02-15T03:53:22.093Z,1030.9
2017-02-15T03:54:32.867Z,1030.86
2017-02-15T03:55:42.832Z,1030.86
2017-02-15T03:56:53.575Z,1030.86
2017-02-15T03:58:03.959Z,1030.83
2017-02-15T03:59:14.967Z,1030.86
2017-02-15T04:00:25.718Z,1030.83
2017-02-15T04:01:36.493Z,1030.86
2017-02-15T04:02:47.258Z,1030.83
2017-02-15T04:03:57.629Z,1030.82
2017-02-15T04:05:08.645Z,1030.82
2017-02-15T04:06:19.405Z,1030.83
2017-02-15T04:07:29.764Z,1030.82
2017-02-15T04:08:40.522Z,1030.82
2017-02-15T04:09:51.296Z,1030.82
2017-02-15T04:11:01.961Z,1030.82
2017-02-15T04:12:11.945Z,1030.82
2017-02-15T04:13:22.320Z,1030.8
2017-02-15T04:14:33.081Z,1030.82
2017-02-15T04:15:43.444Z,1030.79
2017-02-15T04:16:54.465Z,1030.83
2017-02-15T04:18:05.233Z,1030.85
2017-02-15T04:19:15.995Z,1030.85
2017-02-15T04:20:26.759Z,1030.79
2017-02-15T04:21:37.539Z,1030.79
2017-02-15T04:22:47.757Z,1030.79
2017-02-15T04:23:58.526Z,1030.76
2017-02-15T04:25:08.477Z,1030.74
2017-02-15T04:26:18.841Z,1030.76
2017-02-15T04:27:29.207Z,1030.79
2017-02-15T04:28:39.835Z,1030.73
2017-02-15T04:29:50.225Z,1030.76
2017-02-15T04:31:00.593Z,1030.78
2017-02-15T04:32:10.974Z,1030.71
2017-02-15T04:33:21.739Z,1030.73
2017-02-15T04:34:32.753Z,1030.72
2017-02-15T04:35:43.124Z,1030.76
2017-02-15T04:36:53.931Z,1030.75
2017-02-15T04:38:04.289Z,1030.75
2017-02-15T04:39:14.690Z,1030.77
2017-02-15T04:40:25.314Z,1030.73
2017-02-15T04:41:35.693Z,1030.76
2017-02-15T04:42:46.076Z,1030.75
2017-02-15T04:43:56.826Z,1030.73
2017-02-15T04:45:06.801Z,1030.71
2017-02-15T04:46:17.825Z,1030.73
2017-02-15T04:47:28.574Z,1030.7
2017-02-15T04:48:39.345Z,1030.69
2017-02-15T04:49:50.101Z,1030.7
2017-02-15T04:51:00.075Z,1030.69
2017-02-15T04:52:11.089Z,1030.64
2017-02-15T04:53:21.064Z,1030.64
2017-02-15T04:54:31.815Z,1030.67
2017-02-15T04:55:41.784Z,1030.6
2017-02-15T04:56:52.136Z,1030.6
2017-02-15T04:58:03.145Z,1030.61
2017-02-15T04:59:13.490Z,1030.62
2017-02-15T05:00:24.504Z,1030.58
2017-02-15T05:01:34.485Z,1030.56
2017-02-15T05:02:45.241Z,1030.56
2017-02-15T05:03:55.864Z,1030.52
2017-02-15T05:05:06.632Z,1030.58
2017-02-15T05:06:16.609Z,1030.61
2017-02-15T05:07:27.377Z,1030.56
2017-02-15T05:08:38.142Z,1030.6
2017-02-15T05:09:49.165Z,1030.58
2017-02-15T05:10:59.938Z,1030.59
2017-02-15T05:12:10.299Z,1030.59
2017-02-15T05:13:21.051Z,1030.58
2017-02-15T05:14:31.041Z,1030.57
2017-02-15T05:15:41.266Z,1030.59
2017-02-15T05:16:52.054Z,1030.57
2017-02-15T05:18:02.446Z,1030.58
2017-02-15T05:19:13.207Z,1030.59
2017-02-15T05:20:23.973Z,1030.56
2017-02-15T05:21:34.987Z,1030.59
2017-02-15T05:22:45.362Z,1030.54
2017-02-15T05:23:55.761Z,1030.54
2017-02-15T05:25:06.130Z,1030.58
2017-02-15T05:26:16.908Z,1030.52
2017-02-15T05:27:27.138Z,1030.52
2017-02-15T05:28:37.496Z,1030.52
2017-02-15T05:29:48.049Z,1030.49
2017-02-15T05:30:58.440Z,1030.51
2017-02-15T05:32:08.801Z,1030.47
2017-02-15T05:33:19.819Z,1030.48
2017-02-15T05:34:30.593Z,1030.48
2017-02-15T05:35:40.558Z,1030.46
2017-02-15T05:36:51.316Z,1030.48
2017-02-15T05:38:01.695Z,1030.48
2017-02-15T05:39:12.354Z,1030.47
2017-02-15T05:40:23.113Z,1030.47
2017-02-15T05:41:33.918Z,1030.46
2017-02-15T05:42:44.682Z,1030.49
2017-02-15T05:43:54.658Z,1030.44
2017-02-15T05:45:05.679Z,1030.5
2017-02-15T05:46:16.453Z,1030.51
2017-02-15T05:47:27.217Z,1030.52
2017-02-15T05:48:37.973Z,1030.53
2017-02-15T05:49:48.383Z,1030.56
2017-02-15T05:50:59.397Z,1030.61
2017-02-15T05:52:09.785Z,1030.57
2017-02-15T05:53:20.138Z,1030.55
2017-02-15T05:54:30.916Z,1030.59
2017-02-15T05:55:41.283Z,1030.57
2017-02-15T05:56:51.906Z,1030.62
2017-02-15T05:58:02.668Z,1030.61
2017-02-15T05:59:13.428Z,1030.59
2017-02-15T06:00:23.026Z,1030.62
2017-02-15T06:01:33.778Z,1030.57
2017-02-15T06:02:44.776Z,1030.6
2017-02-15T06:03:55.531Z,1030.64
2017-02-15T06:05:05.884Z,1030.63
2017-02-15T06:06:16.647Z,1030.61
2017-02-15T06:07:27.013Z,1030.65
2017-02-15T06:08:38.031Z,1030.68
2017-02-15T06:09:48.399Z,1030.74
2017-02-15T06:10:58.765Z,1030.72
2017-02-15T06:12:09.521Z,1030.75
2017-02-15T06:13:20.525Z,1030.76
2017-02-15T06:14:31.560Z,1030.78
2017-02-15T06:15:42.318Z,1030.75
2017-02-15T06:16:53.077Z,1030.76
2017-02-15T06:18:03.855Z,1030.79
2017-02-15T06:19:14.649Z,1030.78
2017-02-15T06:20:24.888Z,1030.8
2017-02-15T06:21:34.857Z,1030.79
2017-02-15T06:22:45.631Z,1030.78
2017-02-15T06:23:56.407Z,1030.78
2017-02-15T06:25:06.773Z,1030.77
2017-02-15T06:26:17.780Z,1030.81
2017-02-15T06:27:28.157Z,1030.83
2017-02-15T06:28:38.520Z,1030.82
2017-02-15T06:29:49.534Z,1030.87
2017-02-15T06:30:59.920Z,1030.87
2017-02-15T06:32:10.133Z,1030.88
2017-02-15T06:33:20.116Z,1030.88
2017-02-15T06:34:30.876Z,1030.88
2017-02-15T06:35:41.247Z,1030.88
2017-02-15T06:36:51.606Z,1030.88
2017-02-15T06:38:02.221Z,1030.93
2017-02-15T06:39:12.991Z,1030.89
2017-02-15T06:40:23.359Z,1030.93
2017-02-15T06:41:34.124Z,1030.91
2017-02-15T06:42:43.702Z,1030.94
2017-02-15T06:43:54.378Z,1030.94
2017-02-15T06:45:04.341Z,1030.93
2017-02-15T06:46:14.734Z,1030.94
2017-02-15T06:47:25.097Z,1030.93
2017-02-15T06:48:35.864Z,1030.95
2017-02-15T06:49:46.558Z,1030.93
2017-02-15T06:50:56.908Z,1030.94
2017-02-15T06:52:07.657Z,1030.93
2017-02-15T06:53:18.446Z,1030.96
2017-02-15T06:54:29.224Z,1030.99
2017-02-15T06:55:39.957Z,1030.94
2017-02-15T06:56:50.770Z,1030.92
2017-02-15T06:58:01.545Z,1030.95
2017-02-15T06:59:11.891Z,1030.93
2017-02-15T07:00:22.258Z,1030.96
2017-02-15T07:01:32.905Z,1030.97
2017-02-15T07:02:43.272Z,1030.99
2017-02-15T07:03:54.034Z,1030.9
2017-02-15T07:05:04.792Z,1030.91
2017-02-15T07:06:15.558Z,1030.94
2017-02-15T07:07:26.580Z,1030.91
2017-02-15T07:08:37.391Z,1030.93
2017-02-15T07:09:48.174Z,1030.92
2017-02-15T07:10:58.549Z,1030.92
2017-02-15T07:12:08.932Z,1030.93
2017-02-15T07:13:19.215Z,1030.94
2017-02-15T07:14:29.563Z,1030.95
2017-02-15T07:15:40.316Z,1030.97
2017-02-15T07:16:51.086Z,1030.93
2017-02-15T07:18:01.869Z,1030.96
2017-02-15T07:19:12.904Z,1030.95
2017-02-15T07:20:23.275Z,1030.98
2017-02-15T07:21:34.038Z,1030.95
2017-02-15T07:22:44.443Z,1030.96
2017-02-15T07:23:54.888Z,1030.97
2017-02-15T07:25:06.234Z,1031.01
2017-02-15T07:26:16.673Z,1030.99
2017-02-15T07:27:27.128Z,1030.96
2017-02-15T07:28:37.899Z,1031.01
2017-02-15T07:29:48.652Z,1031.02
2017-02-15T07:30:59.681Z,1031.02
2017-02-15T07:32:10.451Z,1031.09
2017-02-15T07:33:21.224Z,1031.11
2017-02-15T07:34:31.992Z,1031.11
2017-02-15T07:35:42.782Z,1031.08
2017-02-15T07:36:53.803Z,1031.11
2017-02-15T07:38:03.791Z,1031.14
2017-02-15T07:39:14.169Z,1031.11
2017-02-15T07:40:24.959Z,1031.14
2017-02-15T07:41:35.772Z,1031.19
2017-02-15T07:42:46.409Z,1031.16
2017-02-15T07:43:56.795Z,1031.16
2017-02-15T07:45:06.376Z,1031.18
2017-02-15T07:46:17.152Z,1031.16
2017-02-15T07:47:27.934Z,1031.14
2017-02-15T07:48:38.943Z,1031.12
2017-02-15T07:49:49.317Z,1031.09
2017-02-15T07:51:00.092Z,1031.07
2017-02-15T07:52:10.850Z,1031.08
2017-02-15T07:53:21.647Z,1031.05
2017-02-15T07:54:32.659Z,1031.12
2017-02-15T07:55:43.441Z,1031.09
2017-02-15T07:56:53.835Z,1031.11
2017-02-15T07:58:03.841Z,1031.1
2017-02-15T07:59:14.209Z,1031.09
2017-02-15T08:00:24.846Z,1031.09
2017-02-15T08:01:34.811Z,1031.1
2017-02-15T08:02:45.192Z,1031.09
2017-02-15T08:03:56.174Z,1031.12
2017-02-15T08:05:06.559Z,1031.13
2017-02-15T08:06:17.192Z,1031.15
2017-02-15T08:07:28.230Z,1031.16
2017-02-15T08:08:38.626Z,1031.13
2017-02-15T08:09:49.005Z,1031.11
2017-02-15T08:10:59.812Z,1031.08
2017-02-15T08:12:10.827Z,1031.1
2017-02-15T08:13:21.409Z,1031.12
2017-02-15T08:14:32.176Z,1031.19
2017-02-15T08:15:42.538Z,1031.23
2017-02-15T08:16:53.348Z,1031.25
2017-02-15T08:18:03.981Z,1031.32
2017-02-15T08:19:14.352Z,1031.3
2017-02-15T08:20:25.140Z,1031.26
2017-02-15T08:21:35.892Z,1031.2
2017-02-15T08:22:45.464Z,1031.14
2017-02-15T08:23:56.097Z,1031.12
2017-02-15T08:25:06.884Z,1031.04
2017-02-15T08:26:17.262Z,1031.07
2017-02-15T08:27:27.649Z,1031.09
2017-02-15T08:28:38.443Z,1031.06
2017-02-15T08:29:49.483Z,1031.11
2017-02-15T08:31:00.270Z,1031.13
2017-02-15T08:32:10.267Z,1031.15
2017-02-15T08:33:21.050Z,1031.18
2017-02-15T08:34:31.853Z,1031.16
2017-02-15T08:35:42.931Z,1031.17
2017-02-15T08:36:53.301Z,1031.15
2017-02-15T08:38:04.055Z,1031.1
2017-02-15T08:39:14.433Z,1031.15
2017-02-15T08:40:25.219Z,1031.08
2017-02-15T08:41:36.247Z,1031.1
2017-02-15T08:42:46.622Z,1031.11
2017-02-15T08:43:56.980Z,1031.03
2017-02-15T08:45:07.454Z,1031.04
2017-02-15T08:46:17.822Z,1031.03
2017-02-15T08:47:28.859Z,1031.03
2017-02-15T08:48:39.681Z,1031.06
2017-02-15T08:49:50.061Z,1031.08
2017-02-15T08:51:00.443Z,1031.08
2017-02-15T08:52:11.284Z,1031.1
2017-02-15T08:53:22.343Z,1031.06
2017-02-15T08:54:33.127Z,1031.11
2017-02-15T08:55:43.559Z,1031.05
2017-02-15T08:56:53.924Z,1031.1
2017-02-15T08:58:04.309Z,1031.13
2017-02-15T08:59:14.916Z,1031.1
2017-02-15T09:00:25.725Z,1031.09
2017-02-15T09:01:36.130Z,1031.11
2017-02-15T09:02:46.939Z,1031.14
2017-02-15T09:03:57.796Z,1031.11
2017-02-15T09:05:08.812Z,1031.14
2017-02-15T09:06:19.609Z,1031.17
2017-02-15T09:07:30.390Z,1031.16
2017-02-15T09:08:40.755Z,1031.14
2017-02-15T09:09:51.136Z,1031.1
2017-02-15T09:11:01.773Z,1031.07
2017-02-15T09:12:12.150Z,1031.07
2017-02-15T09:13:22.934Z,1031.05
2017-02-15T09:14:33.716Z,1031.03
2017-02-15T09:15:44.102Z,1031.05
2017-02-15T09:16:55.110Z,1030.99
2017-02-15T09:18:05.921Z,1030.98
2017-02-15T09:19:16.720Z,1031.02
2017-02-15T09:20:26.692Z,1030.98
2017-02-15T09:21:37.484Z,1030.96
2017-02-15T09:22:48.518Z,1030.94
2017-02-15T09:23:58.928Z,1030.92
2017-02-15T09:25:09.692Z,1030.92
2017-02-15T09:26:20.479Z,1030.92
2017-02-15T09:27:30.892Z,1030.94
2017-02-15T09:28:42.005Z,1030.94
2017-02-15T09:29:52.822Z,1030.9
2017-02-15T09:31:03.207Z,1030.95
2017-02-15T09:32:13.584Z,1030.91
2017-02-15T09:33:23.965Z,1030.86
2017-02-15T09:34:34.723Z,1030.82
2017-02-15T09:35:45.462Z,1030.85
2017-02-15T09:36:55.068Z,1030.8
2017-02-15T09:38:05.867Z,1030.78
2017-02-15T09:39:15.843Z,1030.76
2017-02-15T09:40:26.495Z,1030.75
2017-02-15T09:41:36.863Z,1030.73
2017-02-15T09:42:47.664Z,1030.71
2017-02-15T09:43:58.479Z,1030.73
2017-02-15T09:45:09.255Z,1030.76
2017-02-15T09:46:20.287Z,1030.73
2017-02-15T09:47:31.060Z,1030.72
2017-02-15T09:48:41.870Z,1030.77
2017-02-15T09:49:52.649Z,1030.75
2017-02-15T09:51:03.431Z,1030.73
2017-02-15T09:52:14.926Z,1030.71
2017-02-15T09:53:26.324Z,1030.71
2017-02-15T09:54:37.090Z,1030.74
2017-02-15T09:55:47.484Z,1030.74
2017-02-15T09:56:57.470Z,1030.72
2017-02-15T09:58:08.598Z,1030.71
2017-02-15T09:59:19.931Z,1030.7
2017-02-15T10:00:31.694Z,1030.71
2017-02-15T10:01:42.492Z,1030.72
2017-02-15T10:02:53.297Z,1030.7
2017-02-15T10:04:04.344Z,1030.7
2017-02-15T10:05:15.117Z,1030.74
2017-02-15T10:06:25.893Z,1030.71
2017-02-15T10:07:36.710Z,1030.76
2017-02-15T10:08:47.082Z,1030.69
2017-02-15T10:10:12.612Z,1030.69
2017-02-15T10:11:23.373Z,1030.71
2017-02-15T10:12:33.749Z,1030.75
2017-02-15T10:13:44.126Z,1030.76
2017-02-15T10:14:54.740Z,1030.75
2017-02-15T10:16:05.528Z,1030.79
2017-02-15T10:17:16.295Z,1030.77
2017-02-15T10:18:27.099Z,1030.82
2017-02-15T10:19:37.893Z,1030.79
2017-02-15T10:20:48.520Z,1030.73
2017-02-15T10:21:59.161Z,1030.75
2017-02-15T10:23:09.937Z,1030.7
2017-02-15T10:24:20.325Z,1030.7
2017-02-15T10:25:30.728Z,1030.72
2017-02-15T10:26:42.040Z,1030.7
2017-02-15T10:27:52.807Z,1030.66
2017-02-15T10:29:03.596Z,1030.65
2017-02-15T10:30:14.367Z,1030.67
2017-02-15T10:31:24.757Z,1030.66
2017-02-15T10:32:35.804Z,1030.71
2017-02-15T10:33:46.178Z,1030.64
2017-02-15T10:34:56.569Z,1030.7
2017-02-15T10:36:07.333Z,1030.66
2017-02-15T10:37:18.114Z,1030.66
2017-02-15T10:38:28.751Z,1030.65
2017-02-15T10:39:39.526Z,1030.63
2017-02-15T10:40:49.513Z,1030.61
2017-02-15T10:42:00.293Z,1030.62
2017-02-15T10:43:10.683Z,1030.6
2017-02-15T10:44:21.323Z,1030.62
2017-02-15T10:45:32.113Z,1030.65
2017-02-15T10:46:42.143Z,1030.63
2017-02-15T10:47:52.534Z,1030.59
2017-02-15T10:49:03.326Z,1030.56
2017-02-15T10:50:13.977Z,1030.54
2017-02-15T10:51:24.355Z,1030.56
2017-02-15T10:52:35.116Z,1030.62
2017-02-15T10:53:45.071Z,1030.62
2017-02-15T10:54:55.907Z,1030.6
2017-02-15T10:56:06.552Z,1030.59
2017-02-15T10:57:16.971Z,1030.56
2017-02-15T10:58:27.363Z,1030.57
2017-02-15T10:59:37.733Z,1030.61
2017-02-15T11:00:48.147Z,1030.61
2017-02-15T11:01:59.153Z,1030.65
2017-02-15T11:03:09.932Z,1030.63
2017-02-15T11:04:20.294Z,1030.6
2017-02-15T11:05:31.059Z,1030.56
2017-02-15T11:06:41.840Z,1030.57
2017-02-15T11:07:52.882Z,1030.59
2017-02-15T11:10:40.760Z,1030.56
2017-02-15T11:11:51.158Z,1030.61
2017-02-15T11:13:02.175Z,1030.59
2017-02-15T11:14:12.569Z,1030.55
2017-02-15T11:15:23.327Z,1030.57
2017-02-15T11:16:34.118Z,1030.57
2017-02-15T11:17:44.505Z,1030.51
2017-02-15T11:18:55.143Z,1030.52
2017-02-15T11:20:05.913Z,1030.54
2017-02-15T11:21:16.351Z,1030.53
2017-02-15T11:22:27.135Z,1030.56
2017-02-15T11:23:37.516Z,1030.51
2017-02-15T11:24:48.140Z,1030.48
2017-02-15T11:25:58.517Z,1030.45
2017-02-15T11:27:09.299Z,1030.46
2017-02-15T11:28:20.073Z,1030.48
2017-02-15T11:29:30.834Z,1030.47
2017-02-15T11:30:41.850Z,1030.5
2017-02-15T11:31:52.662Z,1030.45
2017-02-15T11:33:03.455Z,1030.46
2017-02-15T11:34:14.257Z,1030.43
2017-02-15T11:35:25.034Z,1030.47
2017-02-15T11:36:35.643Z,1030.41
2017-02-15T11:37:46.426Z,1030.44
2017-02-15T11:38:57.208Z,1030.5
2017-02-15T11:40:07.622Z,1030.44
2017-02-15T11:41:17.605Z,1030.43
2017-02-15T11:42:28.646Z,1030.38
2017-02-15T11:43:39.424Z,1030.42
2017-02-15T11:44:49.800Z,1030.42
2017-02-15T11:45:59.796Z,1030.43
2017-02-15T11:47:10.592Z,1030.41
2017-02-15T11:48:21.402Z,1030.38
2017-02-15T11:49:32.190Z,1030.35
2017-02-15T11:50:42.577Z,1030.36
2017-02-15T11:51:52.958Z,1030.36
2017-02-15T11:53:03.358Z,1030.37
2017-02-15T11:54:13.627Z,1030.32
2017-02-15T11:55:23.207Z,1030.31
2017-02-15T11:56:33.983Z,1030.27
2017-02-15T11:57:44.776Z,1030.29
2017-02-15T11:58:55.571Z,1030.27
2017-02-15T12:00:05.818Z,1030.25
2017-02-15T12:01:16.592Z,1030.18
2017-02-15T12:02:26.958Z,1030.24
2017-02-15T12:03:37.716Z,1030.22
2017-02-15T12:04:47.849Z,1030.21
2017-02-15T12:05:58.482Z,1030.21
2017-02-15T12:07:09.284Z,1030.14
2017-02-15T12:08:20.039Z,1030.13
2017-02-15T12:09:30.801Z,1030.08
2017-02-15T12:10:41.208Z,1030.06
2017-02-15T12:11:52.238Z,1030.08
2017-02-15T12:13:03.003Z,1030.05
2017-02-15T12:14:13.390Z,1030.08
2017-02-15T12:15:23.764Z,1030.05
2017-02-15T12:16:34.132Z,1030.04
2017-02-15T12:17:44.770Z,1030.02
2017-02-15T12:18:55.165Z,1030.02
2017-02-15T12:20:05.938Z,1030.02
2017-02-15T12:21:16.330Z,1029.99
2017-02-15T12:22:27.093Z,1030.01
2017-02-15T12:23:37.741Z,1029.99
2017-02-15T12:24:48.164Z,1029.98
2017-02-15T12:25:58.941Z,1029.94
2017-02-15T12:27:09.732Z,1029.92
2017-02-15T12:28:20.509Z,1029.91
2017-02-15T12:29:31.549Z,1029.91
2017-02-15T12:30:41.533Z,1029.91
2017-02-15T12:31:51.908Z,1029.86
2017-02-15T12:33:02.680Z,1029.9
2017-02-15T12:34:13.450Z,1029.86
2017-02-15T12:35:24.513Z,1029.84
2017-02-15T12:36:35.293Z,1029.83
2017-02-15T12:37:45.679Z,1029.82
2017-02-15T12:38:55.657Z,1029.77
2017-02-15T12:40:06.428Z,1029.73
2017-02-15T12:41:16.666Z,1029.7
2017-02-15T12:42:26.646Z,1029.71
2017-02-15T12:43:37.408Z,1029.68
2017-02-15T12:44:47.799Z,1029.67
2017-02-15T12:45:57.363Z,1029.7
2017-02-15T12:47:07.975Z,1029.68
2017-02-15T12:48:18.743Z,1029.71
2017-02-15T12:49:29.147Z,1029.67
2017-02-15T12:50:39.146Z,1029.65
2017-02-15T12:51:49.949Z,1029.62
2017-02-15T12:53:00.590Z,1029.62
2017-02-15T12:54:10.962Z,1029.59
2017-02-15T12:55:21.754Z,1029.6
2017-02-15T12:56:32.531Z,1029.58
2017-02-15T12:57:42.513Z,1029.55
2017-02-15T12:58:53.188Z,1029.54
2017-02-15T13:00:03.949Z,1029.49
2017-02-15T13:01:14.336Z,1029.53
2017-02-15T13:02:25.099Z,1029.5
2017-02-15T13:03:35.863Z,1029.49
2017-02-15T13:04:46.575Z,1029.54
2017-02-15T13:05:57.353Z,1029.49
2017-02-15T13:07:08.163Z,1029.49
2017-02-15T13:08:18.538Z,1029.45
2017-02-15T13:09:28.952Z,1029.4
2017-02-15T13:10:39.969Z,1029.46
2017-02-15T13:11:50.365Z,1029.46
2017-02-15T13:13:01.132Z,1029.41
2017-02-15T13:14:11.532Z,1029.39
2017-02-15T13:15:22.316Z,1029.38
2017-02-15T13:16:32.949Z,1029.36
2017-02-15T13:17:42.941Z,1029.36
2017-02-15T13:18:53.299Z,1029.32
2017-02-15T13:20:04.099Z,1029.33
2017-02-15T13:21:14.500Z,1029.31
2017-02-15T13:22:25.143Z,1029.32
2017-02-15T13:23:35.496Z,1029.31
2017-02-15T13:24:45.876Z,1029.3
2017-02-15T13:25:55.887Z,1029.28
2017-02-15T13:27:06.281Z,1029.26
2017-02-15T13:28:17.303Z,1029.21
2017-02-15T13:29:28.074Z,1029.2
2017-02-15T13:30:38.875Z,1029.21
2017-02-15T13:31:49.254Z,1029.15
2017-02-15T13:32:59.642Z,1029.17
2017-02-15T13:34:09.535Z,1029.19
2017-02-15T13:35:19.522Z,1029.17
2017-02-15T13:36:30.302Z,1029.14
2017-02-15T13:37:40.727Z,1029.11
2017-02-15T13:38:51.095Z,1029.11
2017-02-15T13:40:01.828Z,1029.14
2017-02-15T13:41:12.624Z,1029.11
2017-02-15T13:42:23.031Z,1029.06
2017-02-15T13:43:33.443Z,1029.11
2017-02-15T13:44:43.825Z,1029.15
2017-02-15T13:45:54.520Z,1029.13
2017-02-15T13:47:05.304Z,1029.08
2017-02-15T13:48:15.711Z,1029.09
2017-02-15T13:49:26.483Z,1029.13
2017-02-15T13:50:36.875Z,1029.13
2017-02-15T13:51:47.128Z,1029.07
2017-02-15T13:52:57.502Z,1029.09
2017-02-15T13:54:08.266Z,1029.06
2017-02-15T13:55:18.624Z,1029.04
2017-02-15T13:56:29.419Z,1029.01
2017-02-15T13:57:40.109Z,1029.05
2017-02-15T13:58:51.572Z,1029.06
2017-02-15T14:00:02.362Z,1029.06
2017-02-15T14:01:13.147Z,1029.04
2017-02-15T14:02:23.904Z,1029.07
2017-02-15T14:03:33.793Z,1029.11
2017-02-15T14:04:44.578Z,1029.13
2017-02-15T14:05:55.377Z,1029.1
2017-02-15T14:07:05.764Z,1029.08
2017-02-15T14:08:16.561Z,1029.1
2017-02-15T14:09:27.217Z,1029.08
2017-02-15T14:10:38.007Z,1029.05
2017-02-15T14:11:48.789Z,1029.06
2017-02-15T14:12:59.557Z,1029.04
2017-02-15T14:14:09.963Z,1029.08
2017-02-15T14:15:20.627Z,1029.08
2017-02-15T14:16:31.416Z,1029.08
2017-02-15T14:17:42.234Z,1029.06
2017-02-15T14:18:53.012Z,1029.02